createdAt,value
2017-06-30T00:04:40.206Z,100
2017-06-30T00:14:55.500Z,100
2017-06-30T00:25:09.793Z,100
2017-06-30T00:35:24.921Z,100
2017-06-30T00:45:39.430Z,100
2017-06-30T00:55:53.391Z,100
2017-06-30T01:06:08.069Z,100
2017-06-30T01:16:23.472Z,100
2017-06-30T01:26:38.020Z,100
2017-06-30T01:36:53.250Z,100
2017-06-30T01:47:07.961Z,100
2017-06-30T01:57:22.195Z,100
2017-06-30T02:07:36.205Z,100
2017-06-30T02:17:50.628Z,100
2017-06-30T02:28:04.423Z,100
2017-06-30T02:38:18.782Z,100
2017-06-30T02:48:33.629Z,100
2017-06-30T02:58:48.874Z,100
2017-06-30T03:09:03.908Z,100
2017-06-30T03:19:19.193Z,100
2017-06-30T03:29:34.623Z,100
2017-06-30T03:39:48.572Z,100
2017-06-30T03:50:04.096Z,100
2017-06-30T04:00:17.877Z,100
2017-06-30T04:10:31.651Z,100
2017-06-30T04:20:46.158Z,100
2017-06-30T04:31:00.740Z,100
2017-06-30T04:41:15.529Z,100
2017-06-30T04:51:30.208Z,100
2017-06-30T05:01:44.772Z,100
2017-06-30T05:11:59.959Z,100
2017-06-30T05:22:15.652Z,100
2017-06-30T05:32:31.031Z,100
2017-06-30T05:42:45.155Z,100
2017-06-30T05:53:00.735Z,100
2017-06-30T06:03:15.431Z,100
2017-06-30T06:13:29.675Z,100
2017-06-30T06:23:43.675Z,100
2017-06-30T06:33:57.788Z,100
2017-06-30T06:44:13.254Z,100
2017-06-30T06:54:28.685Z,100
2017-06-30T07:04:42.620Z,100
2017-06-30T07:14:58.294Z,100
2017-06-30T07:25:13.519Z,100
2017-06-30T07:35:28.797Z,100
2017-06-30T07:45:42.789Z,100
2017-06-30T07:55:56.787Z,100
2017-06-30T08:06:12.475Z,100
2017-06-30T08:16:26.737Z,100
2017-06-30T08:26:40.925Z,100
2017-06-30T08:36:55.883Z,100
2017-06-30T08:47:10.010Z,100
2017-06-30T08:57:25.053Z,100
2017-06-30T09:07:38.970Z,100
2017-06-30T09:17:54.650Z,100
2017-06-30T09:28:09.629Z,100
2017-06-30T09:38:24.996Z,100
2017-06-30T09:48:39.482Z,99.2
2017-06-30T09:58:54.942Z,97.2
2017-06-30T10:09:10.727Z,96.9
2017-06-30T10:19:24.890Z,95.1
2017-06-30T10:29:40.127Z,96
2017-06-30T10:39:54.894Z,94.8
2017-06-30T10:50:09.059Z,94.6
2017-06-30T11:00:24.794Z,94.2
2017-06-30T11:10:39.984Z,93.8
2017-06-30T11:20:55.584Z,92.8
2017-06-30T11:31:10.199Z,91.2
2017-06-30T11:41:24.273Z,90.4
2017-06-30T11:51:38.413Z,89.1
2017-06-30T12:01:53.203Z,87.7
2017-06-30T12:12:07.935Z,88.2
2017-06-30T12:22:22.035Z,85.9
2017-06-30T12:32:37.725Z,85.9
2017-06-30T12:42:51.839Z,86
2017-06-30T12:53:06.861Z,86
2017-06-30T13:03:21.133Z,87.8
2017-06-30T13:13:35.475Z,88.3
2017-06-30T13:23:50.122Z,89.1
2017-06-30T13:34:04.442Z,89.5
2017-06-30T13:44:20.002Z,90.3
2017-06-30T13:54:35.210Z,90.4
2017-06-30T14:04:50.550Z,89.8
2017-06-30T14:15:04.962Z,89.3
2017-06-30T14:25:20.797Z,86.4
2017-06-30T14:35:35.412Z,84.5
2017-06-30T14:45:49.855Z,83.9
2017-06-30T14:56:03.746Z,82.2
2017-06-30T15:06:18.950Z,80.9
2017-06-30T15:16:34.429Z,81.1
2017-06-30T15:26:49.188Z,82
2017-06-30T15:37:04.870Z,83.3
2017-06-30T15:47:20.105Z,83.6
2017-06-30T15:57:35.528Z,82.9
2017-06-30T16:07:51.316Z,82.5
2017-06-30T16:18:06.987Z,82.1
2017-06-30T16:28:21.241Z,81.2
2017-06-30T16:38:35.310Z,82.5
2017-06-30T16:48:50.073Z,83
2017-06-30T16:59:04.640Z,82.7
2017-06-30T17:09:18.493Z,85.3
2017-06-30T17:19:32.743Z,92.8
2017-06-30T17:29:48.157Z,98.1
2017-06-30T17:40:03.860Z,100
2017-06-30T17:50:18.368Z,100
2017-06-30T18:00:33.802Z,100
2017-06-30T18:10:48.233Z,100
2017-06-30T18:21:02.742Z,100
2017-06-30T18:31:18.409Z,100
2017-06-30T18:41:33.191Z,100
2017-06-30T18:51:48.835Z,100
2017-06-30T19:02:03.491Z,100
2017-06-30T19:12:19.106Z,100
2017-06-30T19:22:33.316Z,100
2017-06-30T19:32:49.018Z,100
2017-06-30T19:43:02.919Z,100
2017-06-30T19:53:17.827Z,100
2017-06-30T20:03:31.619Z,100
2017-06-30T20:13:47.308Z,100
2017-06-30T20:24:01.332Z,100
2017-06-30T20:34:15.838Z,100
2017-06-30T20:44:30.418Z,100
2017-06-30T20:54:46.016Z,100
2017-06-30T21:05:00.065Z,100
2017-06-30T21:15:14.037Z,100
2017-06-30T21:25:29.171Z,100
2017-06-30T21:35:43.060Z,100
2017-06-30T21:45:58.070Z,100
2017-06-30T21:56:13.682Z,100
2017-06-30T22:06:28.828Z,100
2017-06-30T22:16:44.260Z,100
2017-06-30T22:26:58.454Z,100
2017-06-30T22:37:12.645Z,100
2017-06-30T22:47:27.461Z,100
2017-06-30T22:57:41.266Z,100
2017-06-30T23:07:55.868Z,100
2017-06-30T23:18:11.602Z,100
2017-06-30T23:28:26.497Z,100
2017-06-30T23:38:41.893Z,100
2017-06-30T23:48:55.804Z,100
2017-06-30T23:59:09.898Z,100
